createdAt,value
2022-10-09T00:00:25.879Z,1.00
2022-10-09T00:02:57.971Z,4.00
2022-10-09T00:05:32.304Z,0.00
2022-10-09T00:08:04.353Z,1.00
2022-10-09T00:10:38.559Z,1.00
2022-10-09T00:13:10.490Z,1.00
2022-10-09T00:15:43.705Z,0.00
2022-10-09T00:18:20.568Z,0.00
2022-10-09T00:20:54.508Z,0.00
2022-10-09T00:23:26.890Z,0.00
2022-10-09T00:26:01.104Z,0.00
2022-10-09T00:28:38.297Z,0.00
2022-10-09T00:31:13.475Z,0.00
2022-10-09T00:33:47.055Z,0.00
2022-10-09T00:36:22.869Z,0.00
2022-10-09T00:38:56.567Z,0.00
2022-10-09T00:41:30.838Z,0.00
2022-10-09T00:44:03.909Z,0.00
2022-10-09T00:46:42.882Z,0.00
2022-10-09T00:49:20.818Z,1.00
2022-10-09T00:51:57.397Z,0.00
2022-10-09T00:54:32.735Z,0.40
2022-10-09T00:57:05.770Z,0.60
2022-10-09T00:59:38.479Z,0.60
2022-10-09T01:02:10.902Z,0.40
2022-10-09T01:04:43.589Z,0.00
2022-10-09T01:07:36.738Z,0.00
2022-10-09T01:10:21.215Z,0.00
2022-10-09T01:13:05.191Z,1.00
2022-10-09T01:15:44.732Z,1.00
2022-10-09T01:18:26.549Z,3.00
2022-10-09T01:21:04.123Z,0.80
2022-10-09T01:23:50.899Z,0.00
2022-10-09T01:26:46.749Z,0.00
2022-10-09T01:29:23.620Z,1.00
2022-10-09T01:31:56.208Z,4.00
2022-10-09T01:34:30.371Z,3.00
2022-10-09T01:37:04.380Z,3.00
2022-10-09T01:39:38.995Z,4.00
2022-10-09T01:42:11.991Z,6.00
2022-10-09T01:44:46.292Z,6.40
2022-10-09T01:47:20.506Z,3.80
2022-10-09T01:49:59.131Z,6.00
2022-10-09T01:52:51.421Z,6.40
2022-10-09T01:55:33.838Z,7.00
2022-10-09T01:58:14.016Z,5.20
2022-10-09T02:00:51.930Z,9.00
2022-10-09T02:03:26.030Z,13.40
2022-10-09T02:06:00.147Z,42.00
2022-10-09T02:08:36.157Z,41.50
2022-10-09T02:11:10.292Z,36.25
2022-10-09T02:13:42.973Z,37.75
2022-10-09T02:16:22.974Z,43.00
2022-10-09T02:19:01.857Z,32.00
2022-10-09T02:21:46.172Z,37.75
2022-10-09T02:24:23.847Z,31.50
2022-10-09T02:26:58.991Z,33.00
2022-10-09T02:29:30.981Z,25.40
2022-10-09T02:32:05.107Z,20.40
2022-10-09T02:34:37.188Z,26.00
2022-10-09T02:37:09.805Z,18.20
2022-10-09T02:39:42.463Z,19.80
2022-10-09T02:42:14.806Z,15.80
2022-10-09T02:44:46.510Z,7.40
2022-10-09T02:47:20.810Z,8.60
2022-10-09T02:49:53.460Z,9.00
2022-10-09T02:52:25.576Z,9.20
2022-10-09T02:54:57.608Z,22.25
2022-10-09T02:57:29.847Z,22.00
2022-10-09T03:00:01.603Z,27.50
2022-10-09T03:02:35.313Z,26.80
2022-10-09T03:05:07.315Z,27.50
2022-10-09T03:07:39.220Z,30.75
2022-10-09T03:10:11.575Z,30.00
2022-10-09T03:12:44.287Z,32.00
2022-10-09T03:15:17.057Z,39.00
2022-10-09T03:17:51.100Z,32.00
2022-10-09T03:20:23.341Z,42.00
2022-10-09T03:22:56.228Z,34.75
2022-10-09T03:25:29.119Z,38.00
2022-10-09T03:28:01.482Z,39.00
2022-10-09T03:30:33.804Z,33.75
2022-10-09T03:33:07.513Z,47.50
2022-10-09T03:35:39.670Z,44.50
2022-10-09T03:38:11.997Z,43.75
2022-10-09T03:40:44.289Z,46.75
2022-10-09T03:43:17.018Z,48.75
2022-10-09T03:45:49.259Z,51.50
2022-10-09T03:48:23.017Z,43.00
2022-10-09T03:50:55.279Z,46.00
2022-10-09T03:53:28.123Z,44.50
2022-10-09T03:56:00.168Z,47.75
2022-10-09T03:58:32.616Z,47.00
2022-10-09T04:01:05.058Z,46.75
2022-10-09T04:03:39.124Z,44.50
2022-10-09T04:06:11.603Z,47.00
2022-10-09T04:08:44.193Z,47.75
2022-10-09T04:11:16.258Z,38.00
2022-10-09T04:13:49.243Z,47.25
2022-10-09T04:16:21.275Z,42.50
2022-10-09T04:18:55.604Z,43.75
2022-10-09T04:21:27.927Z,53.50
2022-10-09T04:24:00.837Z,47.25
2022-10-09T04:26:32.840Z,48.25
2022-10-09T04:29:05.637Z,49.00
2022-10-09T04:31:38.059Z,48.75
2022-10-09T04:34:12.955Z,47.75
2022-10-09T04:36:45.004Z,51.25
2022-10-09T04:39:18.054Z,50.75
2022-10-09T04:41:49.921Z,55.50
2022-10-09T04:44:22.405Z,49.25
2022-10-09T04:46:55.080Z,51.50
2022-10-09T04:49:29.140Z,54.00
2022-10-09T04:52:00.955Z,52.25
2022-10-09T04:54:33.476Z,53.75
2022-10-09T04:57:05.769Z,51.25
2022-10-09T04:59:38.268Z,54.75
2022-10-09T05:02:10.299Z,32.00
2022-10-09T05:04:43.923Z,57.75
2022-10-09T05:07:15.877Z,50.00
2022-10-09T05:09:47.706Z,51.75
2022-10-09T05:12:20.176Z,57.25
2022-10-09T05:14:52.444Z,54.50
2022-10-09T05:17:24.565Z,52.25
2022-10-09T05:19:58.306Z,57.00
2022-10-09T05:22:30.797Z,63.00
2022-10-09T05:25:02.871Z,59.75
2022-10-09T05:27:35.390Z,63.75
2022-10-09T05:34:27.502Z,66.00
2022-10-09T05:37:01.267Z,58.25
2022-10-09T05:39:33.858Z,60.25
2022-10-09T05:42:06.301Z,57.50
2022-10-09T05:44:38.203Z,56.00
2022-10-09T05:47:10.184Z,54.00
2022-10-09T05:57:52.383Z,63.00
2022-10-09T06:00:25.130Z,57.00
2022-10-09T06:02:57.377Z,63.00
2022-10-09T06:05:30.765Z,56.50
2022-10-09T06:08:03.395Z,66.25
2022-10-09T06:10:36.163Z,64.00
2022-10-09T06:13:10.155Z,66.00
2022-10-09T06:15:42.748Z,62.50
2022-10-09T06:18:14.582Z,74.50
2022-10-09T06:20:57.299Z,67.50
2022-10-09T06:23:30.553Z,60.75
2022-10-09T06:26:04.950Z,66.75
2022-10-09T06:28:39.324Z,67.50
2022-10-09T06:31:12.896Z,67.50
2022-10-09T06:33:46.648Z,68.50
2022-10-09T06:36:20.412Z,64.25
2022-10-09T06:38:52.429Z,69.00
2022-10-09T06:41:26.725Z,69.50
2022-10-09T06:44:02.387Z,68.75
2022-10-09T06:46:36.609Z,66.50
2022-10-09T06:49:09.750Z,70.50
2022-10-09T06:51:43.094Z,68.50
2022-10-09T06:54:16.694Z,72.00
2022-10-09T06:56:49.323Z,66.25
2022-10-09T06:59:23.557Z,60.25
2022-10-09T07:01:55.919Z,64.50
2022-10-09T07:04:28.333Z,61.25
2022-10-09T07:07:00.863Z,59.25
2022-10-09T07:09:32.911Z,62.25
2022-10-09T07:12:06.145Z,60.25
2022-10-09T07:14:40.252Z,57.75
2022-10-09T07:17:13.013Z,59.00
2022-10-09T07:19:45.390Z,50.00
2022-10-09T07:22:17.354Z,57.25
2022-10-09T07:24:50.576Z,55.50
2022-10-09T07:27:23.089Z,54.50
2022-10-09T07:29:57.730Z,48.50
2022-10-09T07:32:30.259Z,50.50
2022-10-09T07:35:02.717Z,42.00
2022-10-09T07:37:35.742Z,49.00
2022-10-09T07:40:08.724Z,44.25
2022-10-09T07:42:41.564Z,42.00
2022-10-09T07:45:15.485Z,47.00
2022-10-09T07:47:48.067Z,47.25
2022-10-09T07:50:20.522Z,47.50
2022-10-09T07:52:52.703Z,46.50
2022-10-09T07:55:25.096Z,42.00
2022-10-09T07:57:58.145Z,46.00
2022-10-09T08:00:32.721Z,31.25
2022-10-09T08:03:05.221Z,45.00
2022-10-09T08:05:37.144Z,39.50
2022-10-09T08:08:10.011Z,46.50
2022-10-09T08:10:42.465Z,50.75
2022-10-09T08:13:15.942Z,54.50
2022-10-09T08:15:50.013Z,50.00
2022-10-09T08:18:22.791Z,57.00
2022-10-09T08:21:03.463Z,56.50
2022-10-09T08:23:38.637Z,52.25
2022-10-09T08:26:17.951Z,46.75
2022-10-09T08:28:54.774Z,37.25
2022-10-09T08:31:29.758Z,44.50
2022-10-09T08:34:06.371Z,27.50
2022-10-09T08:36:39.522Z,37.25
2022-10-09T08:39:13.075Z,31.80
2022-10-09T08:41:50.348Z,32.40
2022-10-09T08:44:27.668Z,28.00
2022-10-09T08:47:09.797Z,34.80
2022-10-09T08:49:50.541Z,34.40
2022-10-09T08:52:34.951Z,41.50
2022-10-09T08:55:16.954Z,42.00
2022-10-09T08:57:53.679Z,36.75
2022-10-09T09:00:27.357Z,38.40
2022-10-09T09:03:31.181Z,28.00
2022-10-09T09:06:13.324Z,31.80
2022-10-09T09:08:55.093Z,29.00
2022-10-09T09:11:39.469Z,30.40
2022-10-09T09:14:23.942Z,32.00
2022-10-09T09:17:04.485Z,27.00
2022-10-09T09:19:58.777Z,30.60
2022-10-09T09:22:31.330Z,27.80
2022-10-09T09:25:05.922Z,26.80
2022-10-09T09:27:40.201Z,24.80
2022-10-09T09:30:21.034Z,24.20
2022-10-09T09:33:03.498Z,24.60
2022-10-09T09:35:48.690Z,21.80
2022-10-09T09:38:21.726Z,18.20
2022-10-09T09:40:54.258Z,22.60
2022-10-09T09:43:28.707Z,20.60
2022-10-09T09:46:03.006Z,22.80
2022-10-09T09:48:40.809Z,17.40
2022-10-09T09:51:28.636Z,21.20
2022-10-09T09:54:03.597Z,20.40
2022-10-09T09:57:06.847Z,18.40
2022-10-09T09:59:39.720Z,15.00
2022-10-09T10:02:18.647Z,15.60
2022-10-09T10:04:56.020Z,15.80
2022-10-09T10:07:38.143Z,15.80
2022-10-09T10:10:22.641Z,9.00
2022-10-09T10:13:01.854Z,19.80
2022-10-09T10:15:37.178Z,16.60
2022-10-09T10:18:16.119Z,18.60
2022-10-09T10:20:51.167Z,17.40
2022-10-09T10:23:35.429Z,11.40
2022-10-09T10:26:12.064Z,16.60
2022-10-09T10:28:52.556Z,15.00
2022-10-09T10:31:39.532Z,20.00
2022-10-09T10:34:20.794Z,18.00
2022-10-09T10:37:02.514Z,16.20
2022-10-09T10:39:48.397Z,18.80
2022-10-09T10:42:28.640Z,20.60
2022-10-09T10:45:07.148Z,23.40
2022-10-09T10:47:44.836Z,27.80
2022-10-09T10:50:19.124Z,21.00
2022-10-09T10:53:05.546Z,20.20
2022-10-09T10:55:51.594Z,23.00
2022-10-09T10:58:31.338Z,21.60
2022-10-09T11:01:30.715Z,25.00
2022-10-09T11:04:26.606Z,20.00
2022-10-09T11:07:05.631Z,23.20
2022-10-09T11:09:48.343Z,20.20
2022-10-09T11:12:47.454Z,20.60
2022-10-09T11:15:35.707Z,18.40
2022-10-09T11:18:24.568Z,25.40
2022-10-09T11:21:14.574Z,22.00
2022-10-09T11:24:04.861Z,19.20
2022-10-09T11:26:46.174Z,19.60
2022-10-09T11:29:27.171Z,17.40
2022-10-09T11:32:05.690Z,21.80
2022-10-09T11:34:43.028Z,21.60
2022-10-09T11:37:21.661Z,21.80
2022-10-09T11:39:53.508Z,20.60
2022-10-09T11:42:28.716Z,23.00
2022-10-09T11:45:20.366Z,27.60
2022-10-09T11:48:02.703Z,30.40
2022-10-09T11:50:43.285Z,25.60
2022-10-09T11:53:19.516Z,22.80
2022-10-09T11:55:51.437Z,24.40
2022-10-09T11:58:28.443Z,24.80
2022-10-09T12:01:16.307Z,19.40
2022-10-09T12:03:49.194Z,24.80
2022-10-09T12:06:23.907Z,26.40
2022-10-09T12:09:01.176Z,33.25
2022-10-09T12:11:34.573Z,34.50
2022-10-09T12:14:08.998Z,44.00
2022-10-09T12:16:47.197Z,29.25
2022-10-09T12:19:24.118Z,43.50
2022-10-09T12:22:02.984Z,37.75
2022-10-09T12:24:42.593Z,33.75
2022-10-09T12:27:22.991Z,33.75
2022-10-09T12:29:58.670Z,32.25
2022-10-09T12:32:36.964Z,36.75
2022-10-09T12:35:23.915Z,33.25
2022-10-09T12:37:56.609Z,35.75
2022-10-09T12:40:32.165Z,35.00
2022-10-09T12:43:11.425Z,39.00
2022-10-09T12:45:48.558Z,38.50
2022-10-09T12:48:26.763Z,51.25
2022-10-09T12:50:59.121Z,53.00
2022-10-09T12:53:32.003Z,47.25
2022-10-09T12:56:05.058Z,43.75
2022-10-09T12:58:40.907Z,44.25
2022-10-09T13:01:18.907Z,43.75
2022-10-09T13:04:00.523Z,42.50
2022-10-09T13:06:40.368Z,36.00
2022-10-09T13:09:21.987Z,31.75
2022-10-09T13:11:58.693Z,34.50
2022-10-09T13:14:38.135Z,31.00
2022-10-09T13:17:25.078Z,34.00
2022-10-09T13:20:00.262Z,31.80
2022-10-09T13:22:33.696Z,21.50
2022-10-09T13:25:08.707Z,23.60
2022-10-09T13:27:43.635Z,32.25
2022-10-09T13:30:16.948Z,33.50
2022-10-09T13:32:49.397Z,35.00
2022-10-09T13:35:23.798Z,31.00
2022-10-09T13:37:55.829Z,31.00
2022-10-09T13:40:28.388Z,26.50
2022-10-09T13:43:07.147Z,29.75
2022-10-09T13:45:39.320Z,33.25
2022-10-09T13:48:12.017Z,30.00
2022-10-09T13:50:45.684Z,30.40
2022-10-09T13:53:18.416Z,34.25
2022-10-09T13:55:50.432Z,38.25
2022-10-09T13:58:22.354Z,35.33
2022-10-09T14:00:54.373Z,43.75
2022-10-09T14:03:26.905Z,39.50
2022-10-09T14:06:05.108Z,40.25
2022-10-09T14:08:37.869Z,40.50
2022-10-09T14:11:10.139Z,48.75
2022-10-09T14:13:42.386Z,47.25
2022-10-09T14:16:14.773Z,47.50
2022-10-09T14:18:47.106Z,49.75
2022-10-09T14:21:21.410Z,48.25
2022-10-09T14:23:57.323Z,49.50
2022-10-09T14:26:30.222Z,48.50
2022-10-09T14:29:04.512Z,47.25
2022-10-09T14:31:36.497Z,46.75
2022-10-09T14:34:10.053Z,40.00
2022-10-09T14:36:44.514Z,45.00
2022-10-09T14:39:17.538Z,41.50
2022-10-09T14:41:49.960Z,40.25
2022-10-09T14:44:22.646Z,35.25
2022-10-09T14:46:55.414Z,30.25
2022-10-09T14:49:29.100Z,32.75
2022-10-09T14:52:02.674Z,33.00
2022-10-09T14:54:35.640Z,25.75
2022-10-09T14:57:08.957Z,28.25
2022-10-09T14:59:41.632Z,25.60
2022-10-09T15:02:16.586Z,24.60
2022-10-09T15:04:51.007Z,29.00
2022-10-09T15:07:25.227Z,26.20
2022-10-09T15:09:58.401Z,33.25
2022-10-09T15:12:30.593Z,32.25
2022-10-09T15:15:03.024Z,31.20
2022-10-09T15:17:39.176Z,28.60
2022-10-09T15:20:12.775Z,27.50
2022-10-09T15:22:46.795Z,40.50
2022-10-09T15:25:19.684Z,29.75
2022-10-09T15:27:54.693Z,38.00
2022-10-09T15:30:27.710Z,30.25
2022-10-09T15:33:00.198Z,35.50
2022-10-09T15:35:32.570Z,33.75
2022-10-09T15:38:08.720Z,23.50
2022-10-09T15:40:47.948Z,24.50
2022-10-09T15:43:23.658Z,23.25
2022-10-09T15:45:57.392Z,32.00
2022-10-09T15:48:29.688Z,26.00
2022-10-09T15:51:08.447Z,30.80
2022-10-09T15:53:42.645Z,25.00
2022-10-09T15:56:17.142Z,23.60
2022-10-09T15:58:50.023Z,25.20
2022-10-09T16:01:22.989Z,23.00
2022-10-09T16:03:56.463Z,25.80
2022-10-09T16:06:28.935Z,20.60
2022-10-09T16:09:06.693Z,24.00
2022-10-09T16:11:39.008Z,23.60
2022-10-09T16:14:11.490Z,23.80
2022-10-09T16:16:43.870Z,24.40
2022-10-09T16:19:16.325Z,22.80
2022-10-09T16:21:48.370Z,21.20
2022-10-09T16:24:27.234Z,10.00
2022-10-09T16:27:01.228Z,22.60
2022-10-09T16:29:34.156Z,17.60
2022-10-09T16:32:06.739Z,19.00
2022-10-09T16:34:39.617Z,12.00
2022-10-09T16:37:12.588Z,19.60
2022-10-09T16:39:46.814Z,17.20
2022-10-09T16:42:20.183Z,19.00
2022-10-09T16:44:53.061Z,14.80
2022-10-09T16:47:25.702Z,13.00
2022-10-09T16:49:57.936Z,12.80
2022-10-09T16:52:30.825Z,12.80
2022-10-09T16:55:04.369Z,14.80
2022-10-09T16:57:37.151Z,17.00
2022-10-09T17:00:10.871Z,17.60
2022-10-09T17:02:43.434Z,10.80
2022-10-09T17:05:16.508Z,13.00
2022-10-09T17:07:49.290Z,5.00
2022-10-09T17:10:24.010Z,9.40
2022-10-09T17:12:56.960Z,7.60
2022-10-09T17:15:29.853Z,10.00
2022-10-09T17:18:02.557Z,4.80
2022-10-09T17:20:34.875Z,6.20
2022-10-09T17:23:07.344Z,8.00
2022-10-09T17:25:47.022Z,7.00
2022-10-09T17:28:19.413Z,10.80
2022-10-09T17:30:51.545Z,12.00
2022-10-09T17:33:24.112Z,10.80
2022-10-09T17:35:56.679Z,11.00
2022-10-09T17:38:28.985Z,11.40
2022-10-09T17:41:03.129Z,7.00
2022-10-09T17:43:36.200Z,10.60
2022-10-09T17:46:08.759Z,9.60
2022-10-09T17:48:45.906Z,7.00
2022-10-09T17:51:19.599Z,10.60
2022-10-09T17:53:52.380Z,12.60
2022-10-09T17:56:26.401Z,17.60
2022-10-09T17:58:58.910Z,19.60
2022-10-09T18:01:31.764Z,19.80
2022-10-09T18:04:03.996Z,17.80
2022-10-09T18:06:38.444Z,12.60
2022-10-09T18:09:10.834Z,16.00
2022-10-09T18:11:44.781Z,9.20
2022-10-09T18:14:16.923Z,14.60
2022-10-09T18:16:49.273Z,10.20
2022-10-09T18:19:23.075Z,8.20
2022-10-09T18:21:55.451Z,12.80
2022-10-09T18:24:28.702Z,11.20
2022-10-09T18:27:02.623Z,11.00
2022-10-09T18:29:35.233Z,11.00
2022-10-09T18:32:07.323Z,10.80
2022-10-09T18:34:43.136Z,10.00
2022-10-09T18:37:21.259Z,8.80
2022-10-09T18:39:53.552Z,7.80
2022-10-09T18:42:27.922Z,7.40
2022-10-09T18:44:59.892Z,7.00
2022-10-09T18:47:37.181Z,5.00
2022-10-09T18:50:12.743Z,2.80
2022-10-09T18:52:46.357Z,4.20
2022-10-09T18:55:24.728Z,5.20
2022-10-09T18:57:58.351Z,9.20
2022-10-09T19:00:31.067Z,6.60
2022-10-09T19:03:03.371Z,6.00
2022-10-09T19:05:35.766Z,5.00
2022-10-09T19:08:08.243Z,6.60
2022-10-09T19:10:40.328Z,7.00
2022-10-09T19:13:14.736Z,5.00
2022-10-09T19:15:52.761Z,4.00
2022-10-09T19:18:24.806Z,4.40
2022-10-09T19:20:57.647Z,4.00
2022-10-09T19:23:30.081Z,5.00
2022-10-09T19:26:03.315Z,3.80
2022-10-09T19:28:39.556Z,1.60
2022-10-09T19:31:13.390Z,4.00
2022-10-09T19:33:45.811Z,4.40
2022-10-09T19:36:18.799Z,3.20
2022-10-09T19:38:51.467Z,2.00
2022-10-09T19:41:23.659Z,1.00
2022-10-09T19:43:57.220Z,3.60
2022-10-09T19:46:30.660Z,1.60
2022-10-09T19:49:02.670Z,2.00
2022-10-09T19:51:36.061Z,1.20
2022-10-09T19:54:09.430Z,1.00
2022-10-09T19:56:43.421Z,2.00
2022-10-09T19:59:17.449Z,1.00
2022-10-09T20:01:51.871Z,1.00
2022-10-09T20:04:27.342Z,1.00
2022-10-09T20:06:59.596Z,1.00
2022-10-09T20:09:32.392Z,0.00
2022-10-09T20:12:04.622Z,0.40
2022-10-09T20:14:38.298Z,0.60
2022-10-09T20:17:11.463Z,1.00
2022-10-09T20:19:45.852Z,0.00
2022-10-09T20:22:18.709Z,5.80
2022-10-09T20:24:50.789Z,1.40
2022-10-09T20:27:23.224Z,0.00
2022-10-09T20:29:58.090Z,0.00
2022-10-09T20:32:31.830Z,1.00
2022-10-09T20:35:04.619Z,0.60
2022-10-09T20:37:37.361Z,1.00
2022-10-09T20:40:10.261Z,1.00
2022-10-09T20:42:42.721Z,1.00
2022-10-09T20:45:16.975Z,0.60
2022-10-09T20:47:49.284Z,1.00
2022-10-09T20:50:21.547Z,1.20
2022-10-09T20:52:53.788Z,1.40
2022-10-09T20:55:25.619Z,1.00
2022-10-09T20:57:58.271Z,2.20
2022-10-09T21:00:32.253Z,1.00
2022-10-09T21:03:04.329Z,2.80
2022-10-09T21:05:36.042Z,1.40
2022-10-09T21:08:08.148Z,3.20
2022-10-09T21:10:46.344Z,4.00
2022-10-09T21:13:18.436Z,4.00
2022-10-09T21:15:53.157Z,2.00
2022-10-09T21:18:25.956Z,2.60
2022-10-09T21:20:58.197Z,1.60
2022-10-09T21:23:30.555Z,3.60
2022-10-09T21:26:03.370Z,4.80
2022-10-09T21:28:35.979Z,1.00
2022-10-09T21:31:14.981Z,3.20
2022-10-09T21:33:47.475Z,2.80
2022-10-09T21:36:29.490Z,4.40
2022-10-09T21:39:01.606Z,2.00
2022-10-09T21:41:34.478Z,1.80
2022-10-09T21:44:08.013Z,2.00
2022-10-09T21:46:43.252Z,4.00
2022-10-09T21:49:23.028Z,3.00
2022-10-09T21:51:55.683Z,4.80
2022-10-09T21:54:27.793Z,2.80
2022-10-09T21:57:00.350Z,4.20
2022-10-09T21:59:32.847Z,4.20
2022-10-09T22:02:06.371Z,2.40
2022-10-09T22:04:38.947Z,10.80
2022-10-09T22:07:11.302Z,2.20
2022-10-09T22:09:43.309Z,4.40
2022-10-09T22:12:15.978Z,4.40
2022-10-09T22:14:48.091Z,7.60
2022-10-09T22:17:21.795Z,7.00
2022-10-09T22:19:54.033Z,0.00
2022-10-09T22:22:26.860Z,6.40
2022-10-09T22:24:59.120Z,5.20
2022-10-09T22:27:31.277Z,4.40
2022-10-09T22:30:03.078Z,12.80
2022-10-09T22:32:37.098Z,1.40
2022-10-09T22:35:10.471Z,5.40
2022-10-09T22:37:43.085Z,7.60
2022-10-09T22:40:15.308Z,8.00
2022-10-09T22:42:47.671Z,3.80
2022-10-09T22:45:20.022Z,7.80
2022-10-09T22:47:54.320Z,7.00
2022-10-09T22:50:26.638Z,7.00
2022-10-09T22:52:59.012Z,8.00
2022-10-09T22:55:30.996Z,7.00
2022-10-09T22:58:03.086Z,4.20
2022-10-09T23:00:35.637Z,10.00
2022-10-09T23:03:09.167Z,3.00
2022-10-09T23:05:41.658Z,8.20
2022-10-09T23:08:13.957Z,9.20
2022-10-09T23:10:46.023Z,10.00
2022-10-09T23:13:18.015Z,12.20
2022-10-09T23:15:49.959Z,3.60
2022-10-09T23:18:23.690Z,10.00
2022-10-09T23:20:55.598Z,8.20
2022-10-09T23:23:30.531Z,11.20
2022-10-09T23:26:02.861Z,5.40
2022-10-09T23:28:35.333Z,9.80
2022-10-09T23:31:09.286Z,3.60
2022-10-09T23:33:44.947Z,8.40
2022-10-09T23:36:19.778Z,3.00
2022-10-09T23:38:53.106Z,7.00
2022-10-09T23:41:26.905Z,6.20
2022-10-09T23:43:59.239Z,3.60
2022-10-09T23:46:34.469Z,4.80
2022-10-09T23:49:08.956Z,7.00
2022-10-09T23:51:41.548Z,8.20
2022-10-09T23:54:13.390Z,9.80
2022-10-09T23:56:45.953Z,10.20
2022-10-09T23:59:18.005Z,12.20
